sensor_id;sensor_type;location;lat;lon;timestamp;P1;durP1;ratioP1;P2;durP2;ratioP2
11431;SDS011;5772;50.940;6.782;2023-08-07T00:01:40;41.33;;;39.53;;
11431;SDS011;5772;50.940;6.782;2023-08-07T00:04:06;41.47;;;39.67;;
11431;SDS011;5772;50.940;6.782;2023-08-07T00:06:31;42.43;;;40.47;;
11431;SDS011;5772;50.940;6.782;2023-08-07T00:08:56;42.53;;;40.30;;
11431;SDS011;5772;50.940;6.782;2023-08-07T00:11:22;47.20;;;44.97;;
11431;SDS011;5772;50.940;6.782;2023-08-07T00:13:47;42.77;;;40.97;;
11431;SDS011;5772;50.940;6.782;2023-08-07T00:16:12;43.93;;;42.03;;
11431;SDS011;5772;50.940;6.782;2023-08-07T00:18:39;45.00;;;42.90;;
11431;SDS011;5772;50.940;6.782;2023-08-07T00:21:04;47.17;;;44.90;;
11431;SDS011;5772;50.940;6.782;2023-08-07T00:23:30;45.63;;;43.53;;
11431;SDS011;5772;50.940;6.782;2023-08-07T00:25:55;45.83;;;43.67;;
11431;SDS011;5772;50.940;6.782;2023-08-07T00:28:20;45.23;;;42.77;;
11431;SDS011;5772;50.940;6.782;2023-08-07T00:30:46;45.80;;;43.13;;
11431;SDS011;5772;50.940;6.782;2023-08-07T00:33:11;45.37;;;42.90;;
11431;SDS011;5772;50.940;6.782;2023-08-07T00:35:38;46.50;;;44.30;;
11431;SDS011;5772;50.940;6.782;2023-08-07T00:38:03;46.73;;;44.63;;
11431;SDS011;5772;50.940;6.782;2023-08-07T00:40:33;50.50;;;47.67;;
11431;SDS011;5772;50.940;6.782;2023-08-07T00:43:01;46.83;;;44.63;;
11431;SDS011;5772;50.940;6.782;2023-08-07T00:45:26;47.17;;;44.63;;
11431;SDS011;5772;50.940;6.782;2023-08-07T00:47:52;50.80;;;48.60;;
11431;SDS011;5772;50.940;6.782;2023-08-07T00:50:17;47.60;;;45.33;;
11431;SDS011;5772;50.940;6.782;2023-08-07T00:52:44;51.80;;;49.10;;
11431;SDS011;5772;50.940;6.782;2023-08-07T00:55:09;51.63;;;49.33;;
11431;SDS011;5772;50.940;6.782;2023-08-07T00:57:34;47.80;;;45.53;;
11431;SDS011;5772;50.940;6.782;2023-08-07T01:00:00;48.47;;;45.83;;
11431;SDS011;5772;50.940;6.782;2023-08-07T01:02:25;48.17;;;46.07;;
11431;SDS011;5772;50.940;6.782;2023-08-07T01:04:51;48.90;;;46.67;;
11431;SDS011;5772;50.940;6.782;2023-08-07T01:07:16;47.23;;;44.67;;
11431;SDS011;5772;50.940;6.782;2023-08-07T01:09:43;48.60;;;46.10;;
11431;SDS011;5772;50.940;6.782;2023-08-07T01:12:10;47.77;;;45.70;;
11431;SDS011;5772;50.940;6.782;2023-08-07T01:14:40;48.27;;;46.20;;
11431;SDS011;5772;50.940;6.782;2023-08-07T01:17:10;49.83;;;47.23;;
11431;SDS011;5772;50.940;6.782;2023-08-07T01:19:39;43.90;;;41.90;;
11431;SDS011;5772;50.940;6.782;2023-08-07T01:22:06;45.03;;;42.97;;
11431;SDS011;5772;50.940;6.782;2023-08-07T01:24:32;45.03;;;42.77;;
11431;SDS011;5772;50.940;6.782;2023-08-07T01:26:57;46.33;;;43.97;;
11431;SDS011;5772;50.940;6.782;2023-08-07T01:29:28;41.90;;;40.00;;
11431;SDS011;5772;50.940;6.782;2023-08-07T01:31:58;39.93;;;37.70;;
11431;SDS011;5772;50.940;6.782;2023-08-07T01:34:25;39.43;;;37.50;;
11431;SDS011;5772;50.940;6.782;2023-08-07T01:36:50;37.63;;;35.93;;
11431;SDS011;5772;50.940;6.782;2023-08-07T01:39:17;37.80;;;35.70;;
11431;SDS011;5772;50.940;6.782;2023-08-07T01:41:43;36.90;;;34.97;;
11431;SDS011;5772;50.940;6.782;2023-08-07T01:44:09;34.13;;;32.57;;
11431;SDS011;5772;50.940;6.782;2023-08-07T01:46:34;31.13;;;29.63;;
11431;SDS011;5772;50.940;6.782;2023-08-07T01:49:00;31.10;;;29.30;;
11431;SDS011;5772;50.940;6.782;2023-08-07T01:51:25;29.80;;;28.40;;
11431;SDS011;5772;50.940;6.782;2023-08-07T01:53:50;30.83;;;28.93;;
11431;SDS011;5772;50.940;6.782;2023-08-07T01:56:17;31.57;;;30.10;;
11431;SDS011;5772;50.940;6.782;2023-08-07T01:58:42;34.53;;;32.97;;
11431;SDS011;5772;50.940;6.782;2023-08-07T02:01:08;32.77;;;31.00;;
11431;SDS011;5772;50.940;6.782;2023-08-07T02:03:33;33.43;;;31.53;;
11431;SDS011;5772;50.940;6.782;2023-08-07T02:05:58;31.80;;;29.97;;
11431;SDS011;5772;50.940;6.782;2023-08-07T02:08:24;31.77;;;29.93;;
11431;SDS011;5772;50.940;6.782;2023-08-07T02:10:49;28.17;;;26.97;;
11431;SDS011;5772;50.940;6.782;2023-08-07T02:13:16;29.80;;;28.53;;
11431;SDS011;5772;50.940;6.782;2023-08-07T02:15:41;30.80;;;29.30;;
11431;SDS011;5772;50.940;6.782;2023-08-07T02:18:06;28.37;;;26.60;;
11431;SDS011;5772;50.940;6.782;2023-08-07T02:20:32;27.63;;;26.13;;
11431;SDS011;5772;50.940;6.782;2023-08-07T02:22:57;27.53;;;25.90;;
11431;SDS011;5772;50.940;6.782;2023-08-07T02:25:22;25.60;;;24.30;;
11431;SDS011;5772;50.940;6.782;2023-08-07T02:27:48;27.30;;;26.07;;
11431;SDS011;5772;50.940;6.782;2023-08-07T02:30:14;27.10;;;25.57;;
11431;SDS011;5772;50.940;6.782;2023-08-07T02:32:40;25.63;;;24.13;;
11431;SDS011;5772;50.940;6.782;2023-08-07T02:35:05;28.20;;;26.90;;
11431;SDS011;5772;50.940;6.782;2023-08-07T02:37:31;29.17;;;27.47;;
11431;SDS011;5772;50.940;6.782;2023-08-07T02:39:56;27.47;;;26.23;;
11431;SDS011;5772;50.940;6.782;2023-08-07T02:42:22;28.17;;;26.50;;
11431;SDS011;5772;50.940;6.782;2023-08-07T02:44:47;26.63;;;24.90;;
11431;SDS011;5772;50.940;6.782;2023-08-07T02:47:14;26.27;;;25.13;;
11431;SDS011;5772;50.940;6.782;2023-08-07T02:49:39;25.63;;;24.33;;
11431;SDS011;5772;50.940;6.782;2023-08-07T02:52:05;27.93;;;26.37;;
11431;SDS011;5772;50.940;6.782;2023-08-07T02:54:31;28.30;;;26.63;;
11431;SDS011;5772;50.940;6.782;2023-08-07T02:56:56;28.23;;;26.83;;
11431;SDS011;5772;50.940;6.782;2023-08-07T02:59:22;26.27;;;24.97;;
11431;SDS011;5772;50.940;6.782;2023-08-07T03:01:47;27.47;;;26.03;;
11431;SDS011;5772;50.940;6.782;2023-08-07T03:04:14;25.70;;;24.30;;
11431;SDS011;5772;50.940;6.782;2023-08-07T03:06:39;24.90;;;23.17;;
11431;SDS011;5772;50.940;6.782;2023-08-07T03:09:05;24.93;;;23.93;;
11431;SDS011;5772;50.940;6.782;2023-08-07T03:11:30;27.07;;;25.53;;
11431;SDS011;5772;50.940;6.782;2023-08-07T03:13:55;26.07;;;24.87;;
11431;SDS011;5772;50.940;6.782;2023-08-07T03:16:21;26.60;;;24.83;;
11431;SDS011;5772;50.940;6.782;2023-08-07T03:18:46;28.53;;;26.40;;
11431;SDS011;5772;50.940;6.782;2023-08-07T03:21:13;29.17;;;27.57;;
11431;SDS011;5772;50.940;6.782;2023-08-07T03:23:38;29.07;;;27.37;;
11431;SDS011;5772;50.940;6.782;2023-08-07T03:26:03;30.33;;;28.80;;
11431;SDS011;5772;50.940;6.782;2023-08-07T03:28:29;29.77;;;28.30;;
11431;SDS011;5772;50.940;6.782;2023-08-07T03:30:55;33.60;;;31.83;;
11431;SDS011;5772;50.940;6.782;2023-08-07T03:33:20;29.07;;;27.57;;
11431;SDS011;5772;50.940;6.782;2023-08-07T03:35:45;31.13;;;29.50;;
11431;SDS011;5772;50.940;6.782;2023-08-07T03:38:12;31.27;;;29.80;;
11431;SDS011;5772;50.940;6.782;2023-08-07T03:40:38;31.20;;;29.80;;
11431;SDS011;5772;50.940;6.782;2023-08-07T03:43:03;34.20;;;31.93;;
11431;SDS011;5772;50.940;6.782;2023-08-07T03:45:28;33.10;;;31.60;;
11431;SDS011;5772;50.940;6.782;2023-08-07T03:47:54;35.17;;;33.17;;
11431;SDS011;5772;50.940;6.782;2023-08-07T03:50:19;35.37;;;33.53;;
11431;SDS011;5772;50.940;6.782;2023-08-07T03:52:44;37.33;;;35.47;;
11431;SDS011;5772;50.940;6.782;2023-08-07T03:55:11;33.80;;;32.07;;
11431;SDS011;5772;50.940;6.782;2023-08-07T03:57:36;36.60;;;34.90;;
11431;SDS011;5772;50.940;6.782;2023-08-07T04:00:02;39.87;;;37.70;;
11431;SDS011;5772;50.940;6.782;2023-08-07T04:02:27;40.37;;;38.50;;
11431;SDS011;5772;50.940;6.782;2023-08-07T04:04:53;42.53;;;40.83;;
11431;SDS011;5772;50.940;6.782;2023-08-07T04:07:18;41.47;;;39.47;;
11431;SDS011;5772;50.940;6.782;2023-08-07T04:09:43;42.37;;;39.97;;
11431;SDS011;5772;50.940;6.782;2023-08-07T04:12:10;43.63;;;41.23;;
11431;SDS011;5772;50.940;6.782;2023-08-07T04:14:35;44.27;;;42.10;;
11431;SDS011;5772;50.940;6.782;2023-08-07T04:17:01;44.47;;;42.20;;
11431;SDS011;5772;50.940;6.782;2023-08-07T04:19:26;45.70;;;43.60;;
11431;SDS011;5772;50.940;6.782;2023-08-07T04:21:52;47.03;;;44.83;;
11431;SDS011;5772;50.940;6.782;2023-08-07T04:24:17;44.10;;;42.10;;
11431;SDS011;5772;50.940;6.782;2023-08-07T04:26:42;45.00;;;42.67;;
11431;SDS011;5772;50.940;6.782;2023-08-07T04:29:09;47.00;;;44.70;;
11431;SDS011;5772;50.940;6.782;2023-08-07T04:31:34;47.03;;;44.83;;
11431;SDS011;5772;50.940;6.782;2023-08-07T04:34:00;48.50;;;46.00;;
11431;SDS011;5772;50.940;6.782;2023-08-07T04:36:25;47.83;;;45.77;;
11431;SDS011;5772;50.940;6.782;2023-08-07T04:38:50;45.97;;;43.77;;
11431;SDS011;5772;50.940;6.782;2023-08-07T04:41:16;49.03;;;46.63;;
11431;SDS011;5772;50.940;6.782;2023-08-07T04:43:41;48.20;;;46.00;;
11431;SDS011;5772;50.940;6.782;2023-08-07T04:46:08;47.80;;;45.40;;
11431;SDS011;5772;50.940;6.782;2023-08-07T04:48:34;44.73;;;42.63;;
11431;SDS011;5772;50.940;6.782;2023-08-07T04:50:59;48.33;;;46.10;;
11431;SDS011;5772;50.940;6.782;2023-08-07T04:53:24;44.20;;;42.30;;
11431;SDS011;5772;50.940;6.782;2023-08-07T04:55:50;44.57;;;42.57;;
11431;SDS011;5772;50.940;6.782;2023-08-07T04:58:15;46.17;;;43.47;;
11431;SDS011;5772;50.940;6.782;2023-08-07T05:00:40;42.43;;;40.43;;
11431;SDS011;5772;50.940;6.782;2023-08-07T05:03:07;43.93;;;41.87;;
11431;SDS011;5772;50.940;6.782;2023-08-07T05:05:32;40.47;;;38.77;;
11431;SDS011;5772;50.940;6.782;2023-08-07T05:07:58;38.23;;;36.20;;
11431;SDS011;5772;50.940;6.782;2023-08-07T05:10:23;38.60;;;36.70;;
11431;SDS011;5772;50.940;6.782;2023-08-07T05:12:49;35.53;;;33.93;;
11431;SDS011;5772;50.940;6.782;2023-08-07T05:15:14;34.43;;;32.70;;
11431;SDS011;5772;50.940;6.782;2023-08-07T05:17:39;34.60;;;32.97;;
11431;SDS011;5772;50.940;6.782;2023-08-07T05:20:07;31.80;;;30.37;;
11431;SDS011;5772;50.940;6.782;2023-08-07T05:22:33;32.63;;;31.10;;
11431;SDS011;5772;50.940;6.782;2023-08-07T05:24:58;27.90;;;26.60;;
11431;SDS011;5772;50.940;6.782;2023-08-07T05:27:23;30.30;;;28.80;;
11431;SDS011;5772;50.940;6.782;2023-08-07T05:29:49;29.63;;;28.13;;
11431;SDS011;5772;50.940;6.782;2023-08-07T05:32:14;25.63;;;24.47;;
11431;SDS011;5772;50.940;6.782;2023-08-07T05:34:40;28.13;;;26.83;;
11431;SDS011;5772;50.940;6.782;2023-08-07T05:37:07;27.63;;;26.00;;
11431;SDS011;5772;50.940;6.782;2023-08-07T05:39:32;24.10;;;22.90;;
11431;SDS011;5772;50.940;6.782;2023-08-07T05:41:59;26.13;;;25.00;;
11431;SDS011;5772;50.940;6.782;2023-08-07T05:44:24;26.90;;;25.40;;
11431;SDS011;5772;50.940;6.782;2023-08-07T05:46:50;27.13;;;25.37;;
11431;SDS011;5772;50.940;6.782;2023-08-07T05:49:15;27.10;;;25.60;;
11431;SDS011;5772;50.940;6.782;2023-08-07T05:51:41;25.50;;;24.40;;
11431;SDS011;5772;50.940;6.782;2023-08-07T05:54:07;24.60;;;23.37;;
11431;SDS011;5772;50.940;6.782;2023-08-07T05:56:33;25.60;;;24.40;;
11431;SDS011;5772;50.940;6.782;2023-08-07T05:58:58;25.20;;;24.10;;
11431;SDS011;5772;50.940;6.782;2023-08-07T06:01:23;26.07;;;24.63;;
11431;SDS011;5772;50.940;6.782;2023-08-07T06:03:49;26.07;;;24.57;;
11431;SDS011;5772;50.940;6.782;2023-08-07T06:06:14;25.23;;;23.83;;
11431;SDS011;5772;50.940;6.782;2023-08-07T06:08:39;25.17;;;24.07;;
11431;SDS011;5772;50.940;6.782;2023-08-07T06:11:06;26.90;;;25.23;;
11431;SDS011;5772;50.940;6.782;2023-08-07T06:13:31;22.83;;;21.63;;
11431;SDS011;5772;50.940;6.782;2023-08-07T06:15:57;23.33;;;22.00;;
11431;SDS011;5772;50.940;6.782;2023-08-07T06:18:22;22.80;;;21.70;;
11431;SDS011;5772;50.940;6.782;2023-08-07T06:20:47;23.20;;;21.93;;
11431;SDS011;5772;50.940;6.782;2023-08-07T06:23:13;25.20;;;23.63;;
11431;SDS011;5772;50.940;6.782;2023-08-07T06:25:38;24.33;;;23.23;;
11431;SDS011;5772;50.940;6.782;2023-08-07T06:28:05;25.00;;;23.67;;
11431;SDS011;5772;50.940;6.782;2023-08-07T06:30:30;27.97;;;26.30;;
11431;SDS011;5772;50.940;6.782;2023-08-07T06:32:56;28.83;;;27.13;;
11431;SDS011;5772;50.940;6.782;2023-08-07T06:35:21;27.30;;;26.10;;
11431;SDS011;5772;50.940;6.782;2023-08-07T06:37:46;28.80;;;27.27;;
11431;SDS011;5772;50.940;6.782;2023-08-07T06:40:12;28.60;;;27.40;;
11431;SDS011;5772;50.940;6.782;2023-08-07T06:42:37;30.87;;;29.13;;
11431;SDS011;5772;50.940;6.782;2023-08-07T06:45:04;31.23;;;29.77;;
11431;SDS011;5772;50.940;6.782;2023-08-07T06:47:30;33.63;;;32.17;;
11431;SDS011;5772;50.940;6.782;2023-08-07T06:49:56;34.37;;;32.77;;
11431;SDS011;5772;50.940;6.782;2023-08-07T06:52:21;35.37;;;33.20;;
11431;SDS011;5772;50.940;6.782;2023-08-07T06:54:47;35.47;;;33.87;;
11431;SDS011;5772;50.940;6.782;2023-08-07T06:57:12;33.97;;;32.30;;
11431;SDS011;5772;50.940;6.782;2023-08-07T06:59:37;34.20;;;32.33;;
11431;SDS011;5772;50.940;6.782;2023-08-07T07:02:04;33.37;;;31.47;;
11431;SDS011;5772;50.940;6.782;2023-08-07T07:04:30;32.77;;;31.17;;
11431;SDS011;5772;50.940;6.782;2023-08-07T07:06:56;33.33;;;31.93;;
11431;SDS011;5772;50.940;6.782;2023-08-07T07:09:21;36.63;;;35.03;;
11431;SDS011;5772;50.940;6.782;2023-08-07T07:11:46;35.20;;;33.00;;
11431;SDS011;5772;50.940;6.782;2023-08-07T07:14:12;36.33;;;34.73;;
11431;SDS011;5772;50.940;6.782;2023-08-07T07:16:37;39.37;;;37.37;;
11431;SDS011;5772;50.940;6.782;2023-08-07T07:19:04;36.77;;;35.07;;
11431;SDS011;5772;50.940;6.782;2023-08-07T07:21:30;36.80;;;35.10;;
11431;SDS011;5772;50.940;6.782;2023-08-07T07:23:55;38.83;;;37.03;;
11431;SDS011;5772;50.940;6.782;2023-08-07T07:26:20;37.73;;;36.13;;
11431;SDS011;5772;50.940;6.782;2023-08-07T07:28:46;38.53;;;36.40;;
11431;SDS011;5772;50.940;6.782;2023-08-07T07:31:11;35.40;;;33.83;;
11431;SDS011;5772;50.940;6.782;2023-08-07T07:33:36;38.13;;;36.23;;
11431;SDS011;5772;50.940;6.782;2023-08-07T07:36:03;37.73;;;36.00;;
11431;SDS011;5772;50.940;6.782;2023-08-07T07:38:29;38.13;;;36.23;;
11431;SDS011;5772;50.940;6.782;2023-08-07T07:40:54;38.13;;;36.10;;
11431;SDS011;5772;50.940;6.782;2023-08-07T07:43:20;41.57;;;39.03;;
11431;SDS011;5772;50.940;6.782;2023-08-07T07:45:45;40.97;;;38.70;;
11431;SDS011;5772;50.940;6.782;2023-08-07T07:48:10;38.57;;;36.50;;
11431;SDS011;5772;50.940;6.782;2023-08-07T07:50:36;41.10;;;39.30;;
11431;SDS011;5772;50.940;6.782;2023-08-07T07:53:03;39.87;;;38.07;;
11431;SDS011;5772;50.940;6.782;2023-08-07T07:55:28;40.17;;;37.70;;
11431;SDS011;5772;50.940;6.782;2023-08-07T07:57:53;37.83;;;36.00;;
11431;SDS011;5772;50.940;6.782;2023-08-07T08:00:19;37.10;;;35.10;;
11431;SDS011;5772;50.940;6.782;2023-08-07T08:02:45;36.70;;;34.80;;
11431;SDS011;5772;50.940;6.782;2023-08-07T08:05:10;35.53;;;33.17;;
11431;SDS011;5772;50.940;6.782;2023-08-07T08:07:36;31.97;;;30.63;;
11431;SDS011;5772;50.940;6.782;2023-08-07T08:10:03;31.07;;;29.47;;
11431;SDS011;5772;50.940;6.782;2023-08-07T08:12:29;28.30;;;27.00;;
11431;SDS011;5772;50.940;6.782;2023-08-07T08:14:55;28.83;;;27.20;;
11431;SDS011;5772;50.940;6.782;2023-08-07T08:17:20;28.87;;;27.10;;
11431;SDS011;5772;50.940;6.782;2023-08-07T08:19:46;27.07;;;25.63;;
11431;SDS011;5772;50.940;6.782;2023-08-07T08:22:11;26.13;;;24.63;;
11431;SDS011;5772;50.940;6.782;2023-08-07T08:24:37;24.67;;;23.33;;
11431;SDS011;5772;50.940;6.782;2023-08-07T08:27:04;24.17;;;23.07;;
11431;SDS011;5772;50.940;6.782;2023-08-07T08:29:29;24.03;;;22.77;;
11431;SDS011;5772;50.940;6.782;2023-08-07T08:31:55;27.17;;;25.73;;
11431;SDS011;5772;50.940;6.782;2023-08-07T08:34:20;25.67;;;23.50;;
11431;SDS011;5772;50.940;6.782;2023-08-07T08:36:46;25.00;;;23.60;;
11431;SDS011;5772;50.940;6.782;2023-08-07T08:39:11;23.53;;;22.13;;
11431;SDS011;5772;50.940;6.782;2023-08-07T08:41:36;23.83;;;22.57;;
11431;SDS011;5772;50.940;6.782;2023-08-07T08:44:03;27.30;;;25.87;;
11431;SDS011;5772;50.940;6.782;2023-08-07T08:46:30;24.70;;;23.50;;
11431;SDS011;5772;50.940;6.782;2023-08-07T08:48:56;22.60;;;21.50;;
11431;SDS011;5772;50.940;6.782;2023-08-07T08:51:22;22.17;;;21.07;;
11431;SDS011;5772;50.940;6.782;2023-08-07T08:53:49;24.10;;;22.83;;
11431;SDS011;5772;50.940;6.782;2023-08-07T08:56:15;25.77;;;24.57;;
11431;SDS011;5772;50.940;6.782;2023-08-07T08:58:40;25.20;;;24.07;;
11431;SDS011;5772;50.940;6.782;2023-08-07T09:01:07;24.83;;;23.37;;
11431;SDS011;5772;50.940;6.782;2023-08-07T09:03:33;24.67;;;23.33;;
11431;SDS011;5772;50.940;6.782;2023-08-07T09:05:58;25.70;;;24.60;;
11431;SDS011;5772;50.940;6.782;2023-08-07T09:08:24;24.30;;;23.10;;
11431;SDS011;5772;50.940;6.782;2023-08-07T09:10:51;21.30;;;20.40;;
11431;SDS011;5772;50.940;6.782;2023-08-07T09:13:16;23.70;;;22.70;;
11431;SDS011;5772;50.940;6.782;2023-08-07T09:15:46;23.30;;;22.30;;
11431;SDS011;5772;50.940;6.782;2023-08-07T09:18:13;21.97;;;20.77;;
11431;SDS011;5772;50.940;6.782;2023-08-07T09:20:38;19.27;;;18.20;;
11431;SDS011;5772;50.940;6.782;2023-08-07T09:23:04;20.23;;;19.33;;
11431;SDS011;5772;50.940;6.782;2023-08-07T09:25:30;19.90;;;18.80;;
11431;SDS011;5772;50.940;6.782;2023-08-07T09:27:57;18.70;;;17.83;;
11431;SDS011;5772;50.940;6.782;2023-08-07T09:30:25;19.47;;;18.67;;
11431;SDS011;5772;50.940;6.782;2023-08-07T09:32:51;21.10;;;19.83;;
11431;SDS011;5772;50.940;6.782;2023-08-07T09:35:18;21.50;;;20.00;;
11431;SDS011;5772;50.940;6.782;2023-08-07T09:37:45;20.37;;;19.00;;
11431;SDS011;5772;50.940;6.782;2023-08-07T09:40:11;20.10;;;19.17;;
11431;SDS011;5772;50.940;6.782;2023-08-07T09:42:39;21.07;;;19.87;;
11431;SDS011;5772;50.940;6.782;2023-08-07T09:45:18;24.03;;;22.83;;
11431;SDS011;5772;50.940;6.782;2023-08-07T09:47:44;29.70;;;28.33;;
11431;SDS011;5772;50.940;6.782;2023-08-07T09:50:12;24.87;;;23.77;;
11431;SDS011;5772;50.940;6.782;2023-08-07T09:52:42;26.30;;;25.07;;
11431;SDS011;5772;50.940;6.782;2023-08-07T09:55:11;27.73;;;26.40;;
11431;SDS011;5772;50.940;6.782;2023-08-07T09:57:38;23.47;;;22.33;;
11431;SDS011;5772;50.940;6.782;2023-08-07T10:00:19;21.88;;;20.50;;
11431;SDS011;5772;50.940;6.782;2023-08-07T10:02:55;20.13;;;18.98;;
11431;SDS011;5772;50.940;6.782;2023-08-07T10:05:21;19.27;;;18.27;;
11431;SDS011;5772;50.940;6.782;2023-08-07T10:07:48;25.67;;;24.65;;
11431;SDS011;5772;50.940;6.782;2023-08-07T10:10:15;20.83;;;19.83;;
11431;SDS011;5772;50.940;6.782;2023-08-07T10:12:41;25.52;;;24.42;;
11431;SDS011;5772;50.940;6.782;2023-08-07T10:15:06;18.98;;;17.88;;
11431;SDS011;5772;50.940;6.782;2023-08-07T10:17:33;15.40;;;14.57;;
11431;SDS011;5772;50.940;6.782;2023-08-07T10:19:58;14.55;;;13.88;;
11431;SDS011;5772;50.940;6.782;2023-08-07T10:22:24;15.85;;;14.73;;
11431;SDS011;5772;50.940;6.782;2023-08-07T10:24:53;15.20;;;14.27;;
11431;SDS011;5772;50.940;6.782;2023-08-07T10:27:19;13.57;;;12.68;;
11431;SDS011;5772;50.940;6.782;2023-08-07T10:29:45;12.98;;;12.27;;
11431;SDS011;5772;50.940;6.782;2023-08-07T10:32:11;13.73;;;13.13;;
11431;SDS011;5772;50.940;6.782;2023-08-07T10:34:39;12.77;;;12.15;;
11431;SDS011;5772;50.940;6.782;2023-08-07T10:37:07;12.05;;;11.48;;
11431;SDS011;5772;50.940;6.782;2023-08-07T10:39:34;14.10;;;13.30;;
11431;SDS011;5772;50.940;6.782;2023-08-07T10:42:05;11.55;;;10.95;;
11431;SDS011;5772;50.940;6.782;2023-08-07T10:44:31;11.93;;;11.32;;
11431;SDS011;5772;50.940;6.782;2023-08-07T10:46:58;12.80;;;12.10;;
11431;SDS011;5772;50.940;6.782;2023-08-07T10:49:35;13.52;;;12.75;;
11431;SDS011;5772;50.940;6.782;2023-08-07T10:52:05;12.00;;;11.50;;
11431;SDS011;5772;50.940;6.782;2023-08-07T10:54:36;12.60;;;11.95;;
11431;SDS011;5772;50.940;6.782;2023-08-07T10:57:03;13.02;;;12.43;;
11431;SDS011;5772;50.940;6.782;2023-08-07T10:59:33;12.68;;;12.18;;
11431;SDS011;5772;50.940;6.782;2023-08-07T11:02:04;12.82;;;12.32;;
11431;SDS011;5772;50.940;6.782;2023-08-07T11:04:33;14.05;;;13.45;;
11431;SDS011;5772;50.940;6.782;2023-08-07T11:07:05;13.57;;;12.68;;
11431;SDS011;5772;50.940;6.782;2023-08-07T11:09:33;13.80;;;13.20;;
11431;SDS011;5772;50.940;6.782;2023-08-07T11:11:59;14.73;;;13.80;;
11431;SDS011;5772;50.940;6.782;2023-08-07T11:14:25;12.52;;;11.93;;
11431;SDS011;5772;50.940;6.782;2023-08-07T11:16:51;12.57;;;12.07;;
11431;SDS011;5772;50.940;6.782;2023-08-07T11:19:17;12.55;;;11.93;;
11431;SDS011;5772;50.940;6.782;2023-08-07T11:21:43;12.75;;;12.13;;
11431;SDS011;5772;50.940;6.782;2023-08-07T11:24:09;13.40;;;12.52;;
11431;SDS011;5772;50.940;6.782;2023-08-07T11:26:36;13.85;;;13.15;;
11431;SDS011;5772;50.940;6.782;2023-08-07T11:29:02;12.32;;;11.73;;
11431;SDS011;5772;50.940;6.782;2023-08-07T11:31:29;11.45;;;10.95;;
11431;SDS011;5772;50.940;6.782;2023-08-07T11:33:54;12.00;;;11.50;;
11431;SDS011;5772;50.940;6.782;2023-08-07T11:36:20;12.20;;;11.48;;
11431;SDS011;5772;50.940;6.782;2023-08-07T11:38:47;13.43;;;12.82;;
11431;SDS011;5772;50.940;6.782;2023-08-07T11:41:13;12.73;;;12.18;;
11431;SDS011;5772;50.940;6.782;2023-08-07T11:43:40;12.18;;;11.68;;
11431;SDS011;5772;50.940;6.782;2023-08-07T11:46:06;12.43;;;11.93;;
11431;SDS011;5772;50.940;6.782;2023-08-07T11:48:34;12.93;;;12.20;;
11431;SDS011;5772;50.940;6.782;2023-08-07T11:51:00;14.45;;;13.70;;
11431;SDS011;5772;50.940;6.782;2023-08-07T11:53:26;12.75;;;12.15;;
11431;SDS011;5772;50.940;6.782;2023-08-07T11:55:52;12.55;;;11.85;;
11431;SDS011;5772;50.940;6.782;2023-08-07T11:58:18;13.15;;;12.55;;
11431;SDS011;5772;50.940;6.782;2023-08-07T12:00:43;13.38;;;12.75;;
11431;SDS011;5772;50.940;6.782;2023-08-07T12:03:22;12.68;;;12.18;;
11431;SDS011;5772;50.940;6.782;2023-08-07T12:05:50;11.73;;;11.23;;
11431;SDS011;5772;50.940;6.782;2023-08-07T12:08:15;12.18;;;11.68;;
11431;SDS011;5772;50.940;6.782;2023-08-07T12:10:41;13.38;;;12.77;;
11431;SDS011;5772;50.940;6.782;2023-08-07T12:13:07;13.23;;;12.63;;
11431;SDS011;5772;50.940;6.782;2023-08-07T12:15:33;12.90;;;12.40;;
11431;SDS011;5772;50.940;6.782;2023-08-07T12:18:00;13.63;;;12.73;;
11431;SDS011;5772;50.940;6.782;2023-08-07T12:20:26;12.18;;;11.68;;
11431;SDS011;5772;50.940;6.782;2023-08-07T12:22:53;11.90;;;11.40;;
11431;SDS011;5772;50.940;6.782;2023-08-07T12:25:19;12.25;;;11.75;;
11431;SDS011;5772;50.940;6.782;2023-08-07T12:27:44;12.57;;;11.98;;
11431;SDS011;5772;50.940;6.782;2023-08-07T12:30:10;13.50;;;12.80;;
11431;SDS011;5772;50.940;6.782;2023-08-07T12:32:37;11.93;;;11.38;;
11431;SDS011;5772;50.940;6.782;2023-08-07T12:35:02;12.52;;;11.93;;
11431;SDS011;5772;50.940;6.782;2023-08-07T12:37:28;14.90;;;13.90;;
11431;SDS011;5772;50.940;6.782;2023-08-07T12:39:55;12.43;;;11.82;;
11431;SDS011;5772;50.940;6.782;2023-08-07T12:42:20;12.77;;;11.88;;
11431;SDS011;5772;50.940;6.782;2023-08-07T12:44:46;12.45;;;11.85;;
11431;SDS011;5772;50.940;6.782;2023-08-07T12:47:11;12.20;;;11.52;;
11431;SDS011;5772;50.940;6.782;2023-08-07T12:49:36;12.40;;;11.80;;
11431;SDS011;5772;50.940;6.782;2023-08-07T12:52:02;12.57;;;11.88;;
11431;SDS011;5772;50.940;6.782;2023-08-07T12:54:28;11.98;;;11.48;;
11431;SDS011;5772;50.940;6.782;2023-08-07T12:56:55;13.55;;;12.98;;
11431;SDS011;5772;50.940;6.782;2023-08-07T12:59:20;14.00;;;13.40;;
11431;SDS011;5772;50.940;6.782;2023-08-07T13:01:45;15.65;;;15.02;;
11431;SDS011;5772;50.940;6.782;2023-08-07T13:04:11;14.52;;;13.13;;
11431;SDS011;5772;50.940;6.782;2023-08-07T13:06:36;12.20;;;11.45;;
11431;SDS011;5772;50.940;6.782;2023-08-07T13:09:01;12.30;;;11.68;;
11431;SDS011;5772;50.940;6.782;2023-08-07T13:11:27;13.50;;;12.80;;
11431;SDS011;5772;50.940;6.782;2023-08-07T13:13:54;16.92;;;15.93;;
11431;SDS011;5772;50.940;6.782;2023-08-07T13:16:19;12.75;;;11.85;;
11431;SDS011;5772;50.940;6.782;2023-08-07T13:18:44;12.70;;;11.88;;
11431;SDS011;5772;50.940;6.782;2023-08-07T13:21:10;12.20;;;11.68;;
11431;SDS011;5772;50.940;6.782;2023-08-07T13:23:35;12.25;;;11.65;;
11431;SDS011;5772;50.940;6.782;2023-08-07T13:26:00;12.43;;;11.93;;
11431;SDS011;5772;50.940;6.782;2023-08-07T13:28:26;12.93;;;12.32;;
11431;SDS011;5772;50.940;6.782;2023-08-07T13:30:53;12.73;;;12.13;;
11431;SDS011;5772;50.940;6.782;2023-08-07T13:33:18;14.25;;;13.60;;
11431;SDS011;5772;50.940;6.782;2023-08-07T13:35:43;12.50;;;11.85;;
11431;SDS011;5772;50.940;6.782;2023-08-07T13:38:09;12.30;;;11.50;;
11431;SDS011;5772;50.940;6.782;2023-08-07T13:40:34;12.70;;;12.00;;
11431;SDS011;5772;50.940;6.782;2023-08-07T13:43:00;13.27;;;12.57;;
11431;SDS011;5772;50.940;6.782;2023-08-07T13:45:25;13.25;;;12.43;;
11431;SDS011;5772;50.940;6.782;2023-08-07T13:47:52;13.25;;;12.65;;
11431;SDS011;5772;50.940;6.782;2023-08-07T13:50:17;19.00;;;17.90;;
11431;SDS011;5772;50.940;6.782;2023-08-07T13:52:42;16.88;;;16.10;;
11431;SDS011;5772;50.940;6.782;2023-08-07T13:55:08;20.30;;;19.45;;
11431;SDS011;5772;50.940;6.782;2023-08-07T13:57:33;19.27;;;18.48;;
11431;SDS011;5772;50.940;6.782;2023-08-07T13:59:59;20.98;;;19.90;;
11431;SDS011;5772;50.940;6.782;2023-08-07T14:02:24;20.42;;;19.15;;
11431;SDS011;5772;50.940;6.782;2023-08-07T14:04:51;14.77;;;14.15;;
11431;SDS011;5772;50.940;6.782;2023-08-07T14:07:16;17.65;;;16.70;;
11431;SDS011;5772;50.940;6.782;2023-08-07T14:09:41;14.93;;;14.23;;
11431;SDS011;5772;50.940;6.782;2023-08-07T14:12:07;14.38;;;13.32;;
11431;SDS011;5772;50.940;6.782;2023-08-07T14:14:33;13.48;;;12.77;;
11431;SDS011;5772;50.940;6.782;2023-08-07T14:16:58;13.93;;;13.20;;
11431;SDS011;5772;50.940;6.782;2023-08-07T14:19:23;13.35;;;12.57;;
11431;SDS011;5772;50.940;6.782;2023-08-07T14:21:50;15.50;;;14.38;;
11431;SDS011;5772;50.940;6.782;2023-08-07T14:24:16;17.30;;;16.15;;
11431;SDS011;5772;50.940;6.782;2023-08-07T14:26:41;14.68;;;13.95;;